createdAt,value
2018-10-18T00:00:28.496Z,10.30
2018-10-18T00:02:58.647Z,10.90
2018-10-18T00:05:27.993Z,10.40
2018-10-18T00:15:27.573Z,10.40
2018-10-18T00:17:56.930Z,10.50
2018-10-18T00:22:55.303Z,10.20
2018-10-18T00:25:24.595Z,10.30
2018-10-18T00:27:53.925Z,10.10
2018-10-18T00:30:23.255Z,10.50
2018-10-18T00:32:52.585Z,10.70
2018-10-18T00:35:21.884Z,10.10
2018-10-18T00:40:20.229Z,10.30
2018-10-18T00:45:18.573Z,10.30
2018-10-18T00:47:47.913Z,10.50
2018-10-18T00:52:46.407Z,10.40
2018-10-18T00:55:15.748Z,10.10
2018-10-18T00:57:46.380Z,10.30
2018-10-18T01:02:44.529Z,9.90
2018-10-18T01:07:42.623Z,10.40
2018-10-18T01:12:40.826Z,9.90
2018-10-18T01:15:09.922Z,10.10
2018-10-18T01:17:39.055Z,10.20
2018-10-18T01:20:12.176Z,9.90
2018-10-18T01:22:41.360Z,9.80
2018-10-18T01:25:10.527Z,10.10
2018-10-18T01:27:39.702Z,10.50
2018-10-18T01:32:37.804Z,9.80
2018-10-18T01:35:07.551Z,10.00
2018-10-18T01:37:36.723Z,10.20
2018-10-18T01:42:34.998Z,9.80
2018-10-18T01:47:33.114Z,9.80
2018-10-18T01:50:02.351Z,9.70
2018-10-18T01:52:31.434Z,9.90
2018-10-18T01:55:00.614Z,10.20
2018-10-18T02:02:27.687Z,10.20
2018-10-18T02:07:26.363Z,10.00
2018-10-18T02:12:24.452Z,10.10
2018-10-18T02:14:53.663Z,9.50
2018-10-18T02:17:22.812Z,10.00
2018-10-18T02:19:51.994Z,9.60
2018-10-18T02:22:21.190Z,9.90
2018-10-18T02:24:50.375Z,10.00
2018-10-18T02:27:19.731Z,10.20
2018-10-18T02:32:17.846Z,9.70
2018-10-18T02:34:47.035Z,9.60
2018-10-18T02:37:16.211Z,10.20
2018-10-18T02:42:14.381Z,9.70
2018-10-18T02:44:43.497Z,9.90
2018-10-18T02:47:12.663Z,9.70
2018-10-18T02:49:41.866Z,9.90
2018-10-18T02:52:11.279Z,9.40
2018-10-18T02:54:40.492Z,9.70
2018-10-18T02:57:09.799Z,9.70
2018-10-18T02:59:38.974Z,9.40
2018-10-18T03:02:08.740Z,9.30
2018-10-18T03:07:07.758Z,9.90
2018-10-18T03:09:37.044Z,9.70
2018-10-18T03:12:06.649Z,10.00
2018-10-18T03:14:35.755Z,9.90
2018-10-18T03:17:05.171Z,9.70
2018-10-18T03:19:34.355Z,9.90
2018-10-18T03:22:03.533Z,9.80
2018-10-18T03:24:32.711Z,10.10
2018-10-18T03:27:01.883Z,10.40
2018-10-18T03:31:59.984Z,9.80
2018-10-18T03:34:29.155Z,10.20
2018-10-18T03:36:58.291Z,10.10
2018-10-18T03:44:25.371Z,10.60
2018-10-18T03:46:54.537Z,10.90
2018-10-18T03:49:23.739Z,10.10
2018-10-18T03:51:52.942Z,10.10
2018-10-18T03:56:51.048Z,10.50
2018-10-18T03:59:20.241Z,10.10
2018-10-18T04:04:18.332Z,10.20
2018-10-18T04:09:16.427Z,10.60
2018-10-18T04:14:14.593Z,10.30
2018-10-18T04:16:43.754Z,10.70
2018-10-18T04:21:42.010Z,10.20
2018-10-18T04:29:09.259Z,10.60
2018-10-18T04:31:38.462Z,10.30
2018-10-18T04:34:07.634Z,10.10
2018-10-18T04:36:36.981Z,9.60
2018-10-18T04:39:09.675Z,10.10
2018-10-18T04:41:38.892Z,10.10
2018-10-18T04:44:08.143Z,9.90
2018-10-18T04:49:06.519Z,9.60
2018-10-18T04:54:04.640Z,10.40
2018-10-18T04:56:33.971Z,9.50
2018-10-18T04:59:03.088Z,9.90
2018-10-18T05:11:28.422Z,9.80
2018-10-18T05:18:56.059Z,9.90
2018-10-18T05:21:25.292Z,9.80
2018-10-18T05:26:23.416Z,9.50
2018-10-18T05:28:52.607Z,9.10
2018-10-18T05:31:21.859Z,9.30
2018-10-18T05:36:19.884Z,9.20
2018-10-18T05:38:49.074Z,9.20
2018-10-18T05:41:18.379Z,9.10
2018-10-18T05:46:16.599Z,9.00
2018-10-18T05:48:45.860Z,8.90
2018-10-18T05:51:15.069Z,9.30
2018-10-18T05:56:13.328Z,9.00
2018-10-18T05:58:42.492Z,8.90
2018-10-18T06:01:11.721Z,9.00
2018-10-18T06:03:40.902Z,9.10
2018-10-18T06:06:10.052Z,9.40
2018-10-18T06:11:31.229Z,9.60
2018-10-18T06:14:00.479Z,9.70
2018-10-18T06:16:29.753Z,9.50
2018-10-18T06:21:28.163Z,9.40
2018-10-18T06:23:57.322Z,9.60
2018-10-18T06:26:26.568Z,9.50
2018-10-18T06:28:56.170Z,9.50
2018-10-18T06:31:25.339Z,9.90
2018-10-18T06:33:54.603Z,9.80
2018-10-18T06:36:23.838Z,10.00
2018-10-18T06:41:21.916Z,10.30
2018-10-18T06:43:51.139Z,10.00
2018-10-18T06:46:20.315Z,10.40
2018-10-18T06:48:49.541Z,10.60
2018-10-18T06:51:18.727Z,11.00
2018-10-18T06:53:47.885Z,10.70
2018-10-18T06:56:17.072Z,10.90
2018-10-18T07:03:44.132Z,11.10
2018-10-18T07:13:44.888Z,11.10
2018-10-18T07:16:14.072Z,11.70
2018-10-18T07:18:43.371Z,11.60
2018-10-18T07:21:12.527Z,11.70
2018-10-18T07:23:41.731Z,11.60
2018-10-18T07:28:39.976Z,11.50
2018-10-18T07:31:09.219Z,11.40
2018-10-18T07:33:38.427Z,11.30
2018-10-18T07:43:34.580Z,11.50
2018-10-18T07:46:03.890Z,11.10
2018-10-18T07:48:33.117Z,11.10
2018-10-18T07:53:31.388Z,11.40
2018-10-18T07:56:00.536Z,11.50
2018-10-18T07:58:29.752Z,11.90
2018-10-18T08:03:27.883Z,12.10
2018-10-18T08:05:57.107Z,12.10
2018-10-18T08:08:26.307Z,13.00
2018-10-18T08:10:55.561Z,12.10
2018-10-18T08:13:24.736Z,12.20
2018-10-18T08:15:53.927Z,12.40
2018-10-18T08:18:23.308Z,12.60
2018-10-18T08:20:52.550Z,12.30
2018-10-18T08:25:50.701Z,12.50
2018-10-18T08:28:19.951Z,12.60
2018-10-18T08:33:24.296Z,12.80
2018-10-18T08:38:23.259Z,12.70
2018-10-18T08:40:52.573Z,12.60
2018-10-18T08:43:22.185Z,12.90
2018-10-18T08:48:20.770Z,12.50
2018-10-18T08:50:50.213Z,12.80
2018-10-18T08:53:19.411Z,13.00
2018-10-18T08:55:48.907Z,13.00
2018-10-18T08:58:18.231Z,12.80
2018-10-18T09:00:47.404Z,12.70
2018-10-18T09:03:16.565Z,12.90
2018-10-18T09:05:45.796Z,13.10
2018-10-18T09:10:44.500Z,13.20
2018-10-18T09:15:42.695Z,13.50
2018-10-18T09:18:11.868Z,13.50
2018-10-18T09:20:47.709Z,13.80
2018-10-18T09:23:16.906Z,13.30
2018-10-18T09:28:15.184Z,13.40
2018-10-18T09:30:44.371Z,13.50
2018-10-18T09:33:13.556Z,13.40
2018-10-18T09:35:42.714Z,13.70
2018-10-18T09:38:11.927Z,14.50
2018-10-18T09:45:39.091Z,13.50
2018-10-18T09:48:08.280Z,13.90
2018-10-18T09:53:06.841Z,14.40
2018-10-18T09:55:36.095Z,13.90
2018-10-18T09:58:05.437Z,14.10
2018-10-18T10:04:12.021Z,14.50
2018-10-18T10:11:39.253Z,14.30
2018-10-18T10:16:44.245Z,14.20
2018-10-18T10:19:13.508Z,14.30
2018-10-18T10:21:42.616Z,14.10
2018-10-18T10:24:11.870Z,14.40
2018-10-18T10:26:41.099Z,14.00
2018-10-18T10:29:10.323Z,14.20
2018-10-18T10:31:39.575Z,14.40
2018-10-18T10:34:08.860Z,14.30
2018-10-18T10:36:38.208Z,14.60
2018-10-18T10:39:08.752Z,14.50
2018-10-18T10:41:37.998Z,14.30
2018-10-18T10:46:40.364Z,14.00
2018-10-18T10:56:38.115Z,14.50
2018-10-18T10:59:14.975Z,14.50
2018-10-18T11:01:44.151Z,14.10
2018-10-18T11:04:13.317Z,14.50
2018-10-18T11:06:42.487Z,14.10
2018-10-18T11:09:12.228Z,14.50
2018-10-18T11:14:10.438Z,14.50
2018-10-18T11:19:08.515Z,14.10
2018-10-18T11:24:06.767Z,14.00
2018-10-18T11:26:36.097Z,14.10
2018-10-18T11:29:05.666Z,13.90
2018-10-18T11:31:35.036Z,13.80
2018-10-18T11:34:04.505Z,13.90
2018-10-18T11:41:31.552Z,13.70
2018-10-18T11:44:00.755Z,14.10
2018-10-18T11:46:29.902Z,13.90
2018-10-18T11:48:59.124Z,13.60
2018-10-18T11:56:26.646Z,13.70
2018-10-18T11:58:55.863Z,13.80
2018-10-18T12:01:25.453Z,13.90
2018-10-18T12:06:23.607Z,13.90
2018-10-18T12:11:21.794Z,13.70
2018-10-18T12:16:19.915Z,14.20
2018-10-18T12:18:49.066Z,13.60
2018-10-18T12:21:18.244Z,13.40
2018-10-18T12:28:45.363Z,13.40
2018-10-18T12:33:43.514Z,13.80
2018-10-18T12:36:12.788Z,13.70
2018-10-18T12:38:42.003Z,13.50
2018-10-18T12:41:11.396Z,13.70
2018-10-18T12:43:40.764Z,13.80
2018-10-18T12:46:09.958Z,13.50
2018-10-18T12:48:39.172Z,13.80
2018-10-18T12:51:08.339Z,13.80
2018-10-18T12:53:37.522Z,14.10
2018-10-18T12:56:07.040Z,13.80
2018-10-18T12:58:36.363Z,13.60
2018-10-18T13:01:05.604Z,13.80
2018-10-18T13:06:03.780Z,14.50
2018-10-18T13:11:01.944Z,14.20
2018-10-18T13:13:31.179Z,14.70
2018-10-18T13:16:00.383Z,14.00
2018-10-18T13:18:29.595Z,14.30
2018-10-18T13:20:58.803Z,14.20
2018-10-18T13:23:28.142Z,13.90
2018-10-18T13:25:57.426Z,14.40
2018-10-18T13:28:33.369Z,14.10
2018-10-18T13:33:31.462Z,14.30
2018-10-18T13:36:00.911Z,14.00
2018-10-18T13:38:30.107Z,14.10
2018-10-18T13:43:28.284Z,14.00
2018-10-18T13:45:57.523Z,13.90
2018-10-18T13:48:26.692Z,13.80
2018-10-18T13:50:55.868Z,14.50
2018-10-18T13:55:54.064Z,14.00
2018-10-18T13:58:23.352Z,14.00
2018-10-18T14:05:50.969Z,14.10
2018-10-18T14:10:49.088Z,14.20
2018-10-18T14:20:45.382Z,13.80
2018-10-18T14:23:14.844Z,14.00
2018-10-18T14:25:43.790Z,14.30
2018-10-18T14:28:13.046Z,14.20
2018-10-18T14:30:42.437Z,13.90
2018-10-18T14:33:11.631Z,13.90
2018-10-18T14:35:40.806Z,14.20
2018-10-18T14:38:10.193Z,14.00
2018-10-18T14:43:08.343Z,15.00
2018-10-18T14:50:35.681Z,14.30
2018-10-18T14:53:04.838Z,14.20
2018-10-18T14:58:04.044Z,14.20
2018-10-18T15:00:33.219Z,14.00
2018-10-18T15:03:02.465Z,14.50
2018-10-18T15:05:31.683Z,14.30
2018-10-18T15:08:01.009Z,14.40
2018-10-18T15:10:30.155Z,13.80
2018-10-18T15:12:59.342Z,13.80
2018-10-18T15:15:28.546Z,13.90
2018-10-18T15:20:26.955Z,14.00
2018-10-18T15:25:25.365Z,13.80
2018-10-18T15:30:23.470Z,14.60
2018-10-18T15:35:21.884Z,14.10
2018-10-18T15:40:20.020Z,14.20
2018-10-18T15:50:16.282Z,14.10
2018-10-18T15:52:45.470Z,14.20
2018-10-18T15:55:14.681Z,14.30
2018-10-18T15:57:43.912Z,13.80
2018-10-18T16:00:13.159Z,14.00
2018-10-18T16:02:42.603Z,14.30
2018-10-18T16:05:13.381Z,14.00
2018-10-18T16:07:42.601Z,14.00
2018-10-18T16:10:42.613Z,13.70
2018-10-18T16:18:09.794Z,13.80
2018-10-18T16:23:08.092Z,14.10
2018-10-18T16:25:37.432Z,14.20
2018-10-18T16:30:35.584Z,14.10
2018-10-18T16:33:04.952Z,14.20
2018-10-18T16:40:32.893Z,13.90
2018-10-18T16:48:00.691Z,13.90
2018-10-18T16:50:30.075Z,14.00
2018-10-18T16:52:59.284Z,13.90
2018-10-18T16:55:28.484Z,14.10
2018-10-18T16:57:57.927Z,14.30
2018-10-18T17:02:56.079Z,14.70
2018-10-18T17:07:54.588Z,14.00
2018-10-18T17:12:52.779Z,13.90
2018-10-18T17:15:21.976Z,13.80
2018-10-18T17:17:51.182Z,14.10
2018-10-18T17:20:20.500Z,13.90
2018-10-18T17:22:49.608Z,14.70
2018-10-18T17:25:18.834Z,14.10
2018-10-18T17:27:48.141Z,14.00
2018-10-18T17:32:46.431Z,14.40
2018-10-18T17:35:15.630Z,13.70
2018-10-18T17:37:44.839Z,14.40
2018-10-18T17:40:14.124Z,14.30
2018-10-18T17:45:13.025Z,13.90
2018-10-18T17:47:43.073Z,14.40
2018-10-18T17:50:12.651Z,13.80
2018-10-18T17:52:42.096Z,14.30
2018-10-18T17:55:11.319Z,13.80
2018-10-18T17:57:40.691Z,14.00
2018-10-18T18:00:12.379Z,13.90
2018-10-18T18:05:12.035Z,14.00
2018-10-18T18:07:41.196Z,14.00
2018-10-18T18:10:13.884Z,14.10
2018-10-18T18:12:43.048Z,14.40
2018-10-18T18:17:41.413Z,14.10
2018-10-18T18:20:12.031Z,13.90
2018-10-18T18:22:41.299Z,14.00
2018-10-18T18:25:11.652Z,14.30
2018-10-18T18:27:40.931Z,14.20
2018-10-18T18:32:41.927Z,14.30
2018-10-18T18:37:40.023Z,14.30
2018-10-18T18:42:39.511Z,13.90
2018-10-18T18:45:14.093Z,14.00
2018-10-18T18:47:43.155Z,14.30
2018-10-18T18:50:12.320Z,14.10
2018-10-18T18:52:41.467Z,13.80
2018-10-18T18:55:10.990Z,14.00
2018-10-18T18:57:40.183Z,14.10
2018-10-18T19:02:39.315Z,14.30
2018-10-18T19:05:09.230Z,14.00
2018-10-18T19:07:38.451Z,14.30
2018-10-18T19:12:37.071Z,14.10
2018-10-18T19:15:08.111Z,14.40
2018-10-18T19:17:38.162Z,14.30
2018-10-18T19:20:07.387Z,14.10
2018-10-18T19:22:36.760Z,14.70
2018-10-18T19:25:07.182Z,14.10
2018-10-18T19:27:36.736Z,14.40
2018-10-18T19:30:08.086Z,13.80
2018-10-18T19:35:06.711Z,14.00
2018-10-18T19:37:36.065Z,14.30
2018-10-18T19:40:06.713Z,14.30
2018-10-18T19:42:35.960Z,14.00
2018-10-18T19:45:06.219Z,13.80
2018-10-18T19:47:35.443Z,13.70
2018-10-18T19:50:05.283Z,14.00
2018-10-18T19:52:34.841Z,14.10
2018-10-18T19:55:03.955Z,13.90
2018-10-18T19:57:33.167Z,13.70
2018-10-18T20:00:02.319Z,14.10
2018-10-18T20:05:00.476Z,14.00
2018-10-18T20:07:29.670Z,14.30
2018-10-18T20:12:27.970Z,13.80
2018-10-18T20:14:57.268Z,14.20
2018-10-18T20:19:55.777Z,14.20
2018-10-18T20:24:54.734Z,13.90
2018-10-18T20:37:20.081Z,14.20
2018-10-18T20:44:47.459Z,13.90
2018-10-18T20:47:16.853Z,13.70
2018-10-18T20:49:45.957Z,14.10
2018-10-18T20:52:15.388Z,14.10
2018-10-18T20:54:44.567Z,13.80
2018-10-18T20:57:13.968Z,14.00
2018-10-18T20:59:43.084Z,14.10
2018-10-18T21:02:12.288Z,14.10
2018-10-18T21:04:41.488Z,13.80
2018-10-18T21:17:07.036Z,13.80
2018-10-18T21:19:36.211Z,13.50
2018-10-18T21:22:06.101Z,13.40
2018-10-18T21:24:35.291Z,13.50
2018-10-18T21:27:04.546Z,13.50
2018-10-18T21:29:33.699Z,14.00
2018-10-18T21:34:31.855Z,13.50
2018-10-18T21:47:02.817Z,13.80
2018-10-18T21:52:01.401Z,13.70
2018-10-18T21:54:30.590Z,13.20
2018-10-18T22:01:57.829Z,13.50
2018-10-18T22:06:56.288Z,13.30
2018-10-18T22:11:54.516Z,13.50
2018-10-18T22:16:53.309Z,13.70
2018-10-18T22:19:22.526Z,13.40
2018-10-18T22:24:20.628Z,13.30
2018-10-18T22:26:49.859Z,13.30
2018-10-18T22:29:19.050Z,13.80
2018-10-18T22:31:48.219Z,13.20
2018-10-18T22:36:46.576Z,13.60
2018-10-18T22:41:45.123Z,13.20
2018-10-18T22:46:43.223Z,13.30
2018-10-18T22:49:12.390Z,13.30
2018-10-18T22:51:41.567Z,13.40
2018-10-18T22:54:10.735Z,13.30
2018-10-18T22:56:39.937Z,13.10
2018-10-18T22:59:09.256Z,13.40
2018-10-18T23:01:38.334Z,13.10
2018-10-18T23:06:36.449Z,13.50
2018-10-18T23:09:09.163Z,12.90
2018-10-18T23:11:38.356Z,13.90
2018-10-18T23:16:37.651Z,13.20
2018-10-18T23:19:09.525Z,13.40
2018-10-18T23:21:38.744Z,13.20
2018-10-18T23:24:08.060Z,12.90
2018-10-18T23:26:37.240Z,12.80
2018-10-18T23:29:06.550Z,12.80
2018-10-18T23:31:35.736Z,13.00
2018-10-18T23:34:05.091Z,12.90
2018-10-18T23:36:34.276Z,13.50
2018-10-18T23:44:02.431Z,13.10
2018-10-18T23:46:31.594Z,13.40
2018-10-18T23:51:30.009Z,13.20
2018-10-18T23:53:59.263Z,12.80
2018-10-18T23:56:28.523Z,13.20
2018-10-18T23:58:57.750Z,13.30
